sensor_id;sensor_type;location;lat;lon;timestamp;P1;durP1;ratioP1;P2;durP2;ratioP2
73264;SDS011;61493;51.008;14.088;2022-09-21T00:03:34;5.43;;;2.45;;
73264;SDS011;61493;51.008;14.088;2022-09-21T00:06:03;5.60;;;2.35;;
73264;SDS011;61493;51.008;14.088;2022-09-21T00:08:30;3.55;;;2.00;;
73264;SDS011;61493;51.008;14.088;2022-09-21T00:10:55;3.80;;;2.42;;
73264;SDS011;61493;51.008;14.088;2022-09-21T00:13:21;4.57;;;2.60;;
73264;SDS011;61493;51.008;14.088;2022-09-21T00:15:46;4.75;;;2.58;;
73264;SDS011;61493;51.008;14.088;2022-09-21T00:18:12;4.50;;;2.60;;
73264;SDS011;61493;51.008;14.088;2022-09-21T00:20:39;4.05;;;2.58;;
73264;SDS011;61493;51.008;14.088;2022-09-21T00:23:07;5.75;;;2.90;;
73264;SDS011;61493;51.008;14.088;2022-09-21T00:25:33;5.43;;;2.30;;
73264;SDS011;61493;51.008;14.088;2022-09-21T00:27:59;3.38;;;2.05;;
73264;SDS011;61493;51.008;14.088;2022-09-21T00:30:24;6.38;;;2.53;;
73264;SDS011;61493;51.008;14.088;2022-09-21T00:32:49;5.05;;;2.85;;
73264;SDS011;61493;51.008;14.088;2022-09-21T00:35:17;3.72;;;2.08;;
73264;SDS011;61493;51.008;14.088;2022-09-21T00:37:42;4.20;;;2.22;;
73264;SDS011;61493;51.008;14.088;2022-09-21T00:40:08;4.93;;;1.98;;
73264;SDS011;61493;51.008;14.088;2022-09-21T00:42:34;3.53;;;1.98;;
73264;SDS011;61493;51.008;14.088;2022-09-21T00:44:59;3.88;;;2.00;;
73264;SDS011;61493;51.008;14.088;2022-09-21T00:49:59;2.60;;;1.92;;
73264;SDS011;61493;51.008;14.088;2022-09-21T00:52:28;4.45;;;2.25;;
73264;SDS011;61493;51.008;14.088;2022-09-21T01:00:33;4.45;;;2.20;;
73264;SDS011;61493;51.008;14.088;2022-09-21T01:03:00;5.28;;;2.20;;
73264;SDS011;61493;51.008;14.088;2022-09-21T01:05:26;3.10;;;2.10;;
73264;SDS011;61493;51.008;14.088;2022-09-21T01:07:52;2.85;;;1.95;;
73264;SDS011;61493;51.008;14.088;2022-09-21T01:10:20;4.22;;;2.42;;
73264;SDS011;61493;51.008;14.088;2022-09-21T01:12:54;3.38;;;2.15;;
73264;SDS011;61493;51.008;14.088;2022-09-21T01:15:28;5.57;;;2.42;;
73264;SDS011;61493;51.008;14.088;2022-09-21T01:18:29;3.55;;;2.20;;
73264;SDS011;61493;51.008;14.088;2022-09-21T01:29:32;4.68;;;2.45;;
73264;SDS011;61493;51.008;14.088;2022-09-21T01:32:13;4.28;;;2.30;;
73264;SDS011;61493;51.008;14.088;2022-09-21T01:37:31;5.10;;;2.55;;
73264;SDS011;61493;51.008;14.088;2022-09-21T01:40:04;3.67;;;2.35;;
73264;SDS011;61493;51.008;14.088;2022-09-21T01:42:35;4.13;;;2.25;;
73264;SDS011;61493;51.008;14.088;2022-09-21T01:45:04;3.85;;;2.42;;
73264;SDS011;61493;51.008;14.088;2022-09-21T01:47:31;5.05;;;2.42;;
73264;SDS011;61493;51.008;14.088;2022-09-21T01:49:58;5.30;;;2.58;;
73264;SDS011;61493;51.008;14.088;2022-09-21T01:52:40;4.65;;;2.10;;
73264;SDS011;61493;51.008;14.088;2022-09-21T01:55:20;3.45;;;1.80;;
73264;SDS011;61493;51.008;14.088;2022-09-21T01:58:01;5.78;;;1.95;;
73264;SDS011;61493;51.008;14.088;2022-09-21T02:00:33;4.15;;;3.10;;
73264;SDS011;61493;51.008;14.088;2022-09-21T02:03:11;4.30;;;1.90;;
73264;SDS011;61493;51.008;14.088;2022-09-21T02:05:41;3.17;;;1.90;;
73264;SDS011;61493;51.008;14.088;2022-09-21T02:08:07;4.82;;;1.92;;
73264;SDS011;61493;51.008;14.088;2022-09-21T02:10:35;4.10;;;2.13;;
73264;SDS011;61493;51.008;14.088;2022-09-21T02:13:06;3.92;;;2.30;;
73264;SDS011;61493;51.008;14.088;2022-09-21T02:18:42;4.10;;;2.63;;
73264;SDS011;61493;51.008;14.088;2022-09-21T02:21:23;4.47;;;2.83;;
73264;SDS011;61493;51.008;14.088;2022-09-21T02:24:12;7.32;;;3.17;;
73264;SDS011;61493;51.008;14.088;2022-09-21T02:26:43;5.38;;;2.45;;
73264;SDS011;61493;51.008;14.088;2022-09-21T02:29:27;6.38;;;4.03;;
73264;SDS011;61493;51.008;14.088;2022-09-21T02:32:05;4.50;;;2.65;;
73264;SDS011;61493;51.008;14.088;2022-09-21T02:34:42;5.15;;;2.80;;
73264;SDS011;61493;51.008;14.088;2022-09-21T02:40:28;6.85;;;3.00;;
73264;SDS011;61493;51.008;14.088;2022-09-21T02:42:59;3.95;;;2.40;;
73264;SDS011;61493;51.008;14.088;2022-09-21T02:45:36;4.85;;;2.30;;
73264;SDS011;61493;51.008;14.088;2022-09-21T02:48:07;3.75;;;2.20;;
73264;SDS011;61493;51.008;14.088;2022-09-21T02:53:17;4.50;;;2.30;;
73264;SDS011;61493;51.008;14.088;2022-09-21T02:55:47;5.45;;;2.40;;
73264;SDS011;61493;51.008;14.088;2022-09-21T02:58:15;4.32;;;2.20;;
73264;SDS011;61493;51.008;14.088;2022-09-21T03:00:43;4.68;;;2.33;;
73264;SDS011;61493;51.008;14.088;2022-09-21T03:03:19;3.83;;;2.25;;
73264;SDS011;61493;51.008;14.088;2022-09-21T03:05:47;5.22;;;2.50;;
73264;SDS011;61493;51.008;14.088;2022-09-21T03:08:14;4.13;;;2.45;;
73264;SDS011;61493;51.008;14.088;2022-09-21T03:10:40;5.10;;;2.50;;
73264;SDS011;61493;51.008;14.088;2022-09-21T03:13:06;4.53;;;2.42;;
73264;SDS011;61493;51.008;14.088;2022-09-21T03:15:35;3.35;;;2.45;;
73264;SDS011;61493;51.008;14.088;2022-09-21T03:18:05;7.28;;;3.13;;
73264;SDS011;61493;51.008;14.088;2022-09-21T03:20:33;6.72;;;2.47;;
73264;SDS011;61493;51.008;14.088;2022-09-21T03:22:59;5.35;;;3.13;;
73264;SDS011;61493;51.008;14.088;2022-09-21T03:25:25;4.43;;;2.83;;
73264;SDS011;61493;51.008;14.088;2022-09-21T03:27:52;4.90;;;3.10;;
73264;SDS011;61493;51.008;14.088;2022-09-21T03:30:18;4.13;;;2.30;;
73264;SDS011;61493;51.008;14.088;2022-09-21T03:32:44;5.80;;;3.05;;
73264;SDS011;61493;51.008;14.088;2022-09-21T03:35:10;6.97;;;3.50;;
73264;SDS011;61493;51.008;14.088;2022-09-21T03:37:35;5.53;;;3.40;;
73264;SDS011;61493;51.008;14.088;2022-09-21T03:40:00;5.70;;;3.05;;
73264;SDS011;61493;51.008;14.088;2022-09-21T03:42:26;5.65;;;2.80;;
73264;SDS011;61493;51.008;14.088;2022-09-21T03:44:51;6.10;;;3.53;;
73264;SDS011;61493;51.008;14.088;2022-09-21T03:47:17;5.80;;;3.05;;
73264;SDS011;61493;51.008;14.088;2022-09-21T03:49:42;4.65;;;2.85;;
73264;SDS011;61493;51.008;14.088;2022-09-21T03:52:07;5.95;;;3.20;;
73264;SDS011;61493;51.008;14.088;2022-09-21T03:54:32;7.82;;;4.25;;
73264;SDS011;61493;51.008;14.088;2022-09-21T03:56:58;7.68;;;4.20;;
73264;SDS011;61493;51.008;14.088;2022-09-21T03:59:23;9.25;;;3.45;;
73264;SDS011;61493;51.008;14.088;2022-09-21T04:01:49;5.85;;;3.25;;
73264;SDS011;61493;51.008;14.088;2022-09-21T04:04:14;8.75;;;3.80;;
73264;SDS011;61493;51.008;14.088;2022-09-21T04:06:41;6.63;;;3.72;;
73264;SDS011;61493;51.008;14.088;2022-09-21T04:09:06;7.97;;;4.55;;
73264;SDS011;61493;51.008;14.088;2022-09-21T04:11:32;8.15;;;4.18;;
73264;SDS011;61493;51.008;14.088;2022-09-21T04:13:57;8.80;;;3.97;;
73264;SDS011;61493;51.008;14.088;2022-09-21T04:16:23;7.60;;;4.03;;
73264;SDS011;61493;51.008;14.088;2022-09-21T04:18:52;6.10;;;3.60;;
73264;SDS011;61493;51.008;14.088;2022-09-21T04:21:18;7.03;;;3.53;;
73264;SDS011;61493;51.008;14.088;2022-09-21T04:23:45;9.38;;;3.95;;
73264;SDS011;61493;51.008;14.088;2022-09-21T04:26:27;6.60;;;3.95;;
73264;SDS011;61493;51.008;14.088;2022-09-21T04:28:54;5.47;;;3.25;;
73264;SDS011;61493;51.008;14.088;2022-09-21T04:31:21;9.63;;;4.13;;
73264;SDS011;61493;51.008;14.088;2022-09-21T04:33:47;8.18;;;3.45;;
73264;SDS011;61493;51.008;14.088;2022-09-21T04:36:14;5.85;;;3.53;;
73264;SDS011;61493;51.008;14.088;2022-09-21T04:38:40;9.35;;;4.13;;
73264;SDS011;61493;51.008;14.088;2022-09-21T04:41:05;9.80;;;5.13;;
73264;SDS011;61493;51.008;14.088;2022-09-21T04:43:31;6.07;;;3.30;;
73264;SDS011;61493;51.008;14.088;2022-09-21T04:45:56;8.40;;;4.10;;
73264;SDS011;61493;51.008;14.088;2022-09-21T04:48:22;6.85;;;4.35;;
73264;SDS011;61493;51.008;14.088;2022-09-21T04:50:48;9.02;;;4.40;;
73264;SDS011;61493;51.008;14.088;2022-09-21T04:53:14;6.13;;;3.92;;
73264;SDS011;61493;51.008;14.088;2022-09-21T04:55:39;10.73;;;4.80;;
73264;SDS011;61493;51.008;14.088;2022-09-21T04:58:04;10.95;;;4.78;;
73264;SDS011;61493;51.008;14.088;2022-09-21T05:00:30;8.15;;;3.78;;
73264;SDS011;61493;51.008;14.088;2022-09-21T05:02:55;9.65;;;5.22;;
73264;SDS011;61493;51.008;14.088;2022-09-21T05:05:21;9.90;;;4.95;;
73264;SDS011;61493;51.008;14.088;2022-09-21T05:07:46;9.07;;;4.82;;
73264;SDS011;61493;51.008;14.088;2022-09-21T05:10:11;9.27;;;4.68;;
73264;SDS011;61493;51.008;14.088;2022-09-21T05:12:37;9.00;;;4.80;;
73264;SDS011;61493;51.008;14.088;2022-09-21T05:15:02;7.90;;;5.07;;
73264;SDS011;61493;51.008;14.088;2022-09-21T05:17:28;7.28;;;4.18;;
73264;SDS011;61493;51.008;14.088;2022-09-21T05:19:53;7.28;;;4.72;;
73264;SDS011;61493;51.008;14.088;2022-09-21T05:22:18;9.30;;;4.88;;
73264;SDS011;61493;51.008;14.088;2022-09-21T05:24:44;8.30;;;4.75;;
73264;SDS011;61493;51.008;14.088;2022-09-21T05:27:10;8.77;;;4.53;;
73264;SDS011;61493;51.008;14.088;2022-09-21T05:29:37;10.18;;;4.03;;
73264;SDS011;61493;51.008;14.088;2022-09-21T05:32:08;9.70;;;4.65;;
73264;SDS011;61493;51.008;14.088;2022-09-21T05:39:51;10.85;;;5.72;;
73264;SDS011;61493;51.008;14.088;2022-09-21T05:42:19;9.40;;;4.93;;
73264;SDS011;61493;51.008;14.088;2022-09-21T05:44:45;8.85;;;4.40;;
73264;SDS011;61493;51.008;14.088;2022-09-21T05:47:21;8.63;;;5.32;;
73264;SDS011;61493;51.008;14.088;2022-09-21T05:52:39;10.40;;;5.03;;
73264;SDS011;61493;51.008;14.088;2022-09-21T05:55:33;9.75;;;5.18;;
73264;SDS011;61493;51.008;14.088;2022-09-21T05:58:27;9.60;;;4.78;;
73264;SDS011;61493;51.008;14.088;2022-09-21T06:01:19;10.40;;;6.15;;
73264;SDS011;61493;51.008;14.088;2022-09-21T06:03:58;13.82;;;5.63;;
73264;SDS011;61493;51.008;14.088;2022-09-21T06:06:25;9.43;;;5.32;;
73264;SDS011;61493;51.008;14.088;2022-09-21T06:08:50;12.25;;;5.47;;
73264;SDS011;61493;51.008;14.088;2022-09-21T06:11:16;12.95;;;6.80;;
73264;SDS011;61493;51.008;14.088;2022-09-21T06:13:41;13.00;;;6.50;;
73264;SDS011;61493;51.008;14.088;2022-09-21T06:16:07;8.63;;;5.20;;
73264;SDS011;61493;51.008;14.088;2022-09-21T06:18:36;12.07;;;5.60;;
73264;SDS011;61493;51.008;14.088;2022-09-21T06:21:05;9.75;;;5.47;;
73264;SDS011;61493;51.008;14.088;2022-09-21T06:23:31;9.20;;;4.75;;
73264;SDS011;61493;51.008;14.088;2022-09-21T06:25:56;12.48;;;6.97;;
73264;SDS011;61493;51.008;14.088;2022-09-21T06:28:22;9.80;;;5.82;;
73264;SDS011;61493;51.008;14.088;2022-09-21T06:30:50;10.63;;;6.03;;
73264;SDS011;61493;51.008;14.088;2022-09-21T06:33:16;11.07;;;5.53;;
73264;SDS011;61493;51.008;14.088;2022-09-21T06:35:50;9.30;;;5.22;;
73264;SDS011;61493;51.008;14.088;2022-09-21T06:38:20;8.43;;;4.70;;
73264;SDS011;61493;51.008;14.088;2022-09-21T06:40:45;9.73;;;5.60;;
73264;SDS011;61493;51.008;14.088;2022-09-21T06:43:11;10.43;;;6.18;;
73264;SDS011;61493;51.008;14.088;2022-09-21T06:45:36;14.45;;;6.13;;
73264;SDS011;61493;51.008;14.088;2022-09-21T06:48:01;10.00;;;5.47;;
73264;SDS011;61493;51.008;14.088;2022-09-21T06:50:26;9.07;;;4.72;;
73264;SDS011;61493;51.008;14.088;2022-09-21T06:52:52;9.00;;;5.57;;
73264;SDS011;61493;51.008;14.088;2022-09-21T06:55:17;7.70;;;4.65;;
73264;SDS011;61493;51.008;14.088;2022-09-21T06:57:42;6.80;;;4.75;;
73264;SDS011;61493;51.008;14.088;2022-09-21T07:00:09;9.45;;;5.32;;
73264;SDS011;61493;51.008;14.088;2022-09-21T07:02:36;8.30;;;4.93;;
73264;SDS011;61493;51.008;14.088;2022-09-21T07:05:01;9.05;;;6.00;;
73264;SDS011;61493;51.008;14.088;2022-09-21T07:07:27;7.22;;;4.93;;
73264;SDS011;61493;51.008;14.088;2022-09-21T07:09:56;9.10;;;5.70;;
73264;SDS011;61493;51.008;14.088;2022-09-21T07:12:23;9.10;;;6.20;;
73264;SDS011;61493;51.008;14.088;2022-09-21T07:14:49;7.78;;;5.25;;
73264;SDS011;61493;51.008;14.088;2022-09-21T07:17:14;8.88;;;5.32;;
73264;SDS011;61493;51.008;14.088;2022-09-21T07:19:40;7.72;;;5.63;;
73264;SDS011;61493;51.008;14.088;2022-09-21T07:22:05;9.48;;;6.25;;
73264;SDS011;61493;51.008;14.088;2022-09-21T07:24:30;8.27;;;5.75;;
73264;SDS011;61493;51.008;14.088;2022-09-21T07:26:56;8.98;;;5.93;;
73264;SDS011;61493;51.008;14.088;2022-09-21T07:29:22;8.10;;;5.03;;
73264;SDS011;61493;51.008;14.088;2022-09-21T07:31:47;10.00;;;4.53;;
73264;SDS011;61493;51.008;14.088;2022-09-21T07:34:12;10.18;;;5.55;;
73264;SDS011;61493;51.008;14.088;2022-09-21T07:36:38;9.50;;;5.18;;
73264;SDS011;61493;51.008;14.088;2022-09-21T07:39:03;8.55;;;5.28;;
73264;SDS011;61493;51.008;14.088;2022-09-21T07:41:29;7.10;;;4.82;;
73264;SDS011;61493;51.008;14.088;2022-09-21T07:43:54;7.88;;;5.00;;
73264;SDS011;61493;51.008;14.088;2022-09-21T07:46:22;8.98;;;4.93;;
73264;SDS011;61493;51.008;14.088;2022-09-21T07:48:51;8.57;;;5.63;;
73264;SDS011;61493;51.008;14.088;2022-09-21T07:51:20;8.05;;;5.05;;
73264;SDS011;61493;51.008;14.088;2022-09-21T07:53:46;8.50;;;5.38;;
73264;SDS011;61493;51.008;14.088;2022-09-21T07:56:13;10.55;;;5.55;;
73264;SDS011;61493;51.008;14.088;2022-09-21T07:58:40;8.98;;;5.13;;
73264;SDS011;61493;51.008;14.088;2022-09-21T08:01:25;8.57;;;4.90;;
73264;SDS011;61493;51.008;14.088;2022-09-21T08:03:51;9.90;;;4.85;;
73264;SDS011;61493;51.008;14.088;2022-09-21T08:06:18;10.32;;;5.55;;
73264;SDS011;61493;51.008;14.088;2022-09-21T08:08:44;6.97;;;4.50;;
73264;SDS011;61493;51.008;14.088;2022-09-21T08:11:11;5.95;;;4.63;;
73264;SDS011;61493;51.008;14.088;2022-09-21T08:13:40;10.27;;;4.55;;
73264;SDS011;61493;51.008;14.088;2022-09-21T08:16:05;7.75;;;4.47;;
73264;SDS011;61493;51.008;14.088;2022-09-21T08:18:30;7.63;;;4.53;;
73264;SDS011;61493;51.008;14.088;2022-09-21T08:20:57;7.97;;;4.70;;
73264;SDS011;61493;51.008;14.088;2022-09-21T08:23:24;7.00;;;5.05;;
73264;SDS011;61493;51.008;14.088;2022-09-21T08:25:56;7.95;;;4.60;;
73264;SDS011;61493;51.008;14.088;2022-09-21T08:28:24;5.00;;;3.92;;
73264;SDS011;61493;51.008;14.088;2022-09-21T08:30:52;7.07;;;4.25;;
73264;SDS011;61493;51.008;14.088;2022-09-21T08:33:17;5.60;;;3.97;;
73264;SDS011;61493;51.008;14.088;2022-09-21T08:35:50;7.18;;;4.03;;
73264;SDS011;61493;51.008;14.088;2022-09-21T08:38:16;7.45;;;4.30;;
73264;SDS011;61493;51.008;14.088;2022-09-21T08:40:41;5.45;;;3.42;;
73264;SDS011;61493;51.008;14.088;2022-09-21T08:43:08;4.90;;;3.33;;
73264;SDS011;61493;51.008;14.088;2022-09-21T08:45:42;5.97;;;3.28;;
73264;SDS011;61493;51.008;14.088;2022-09-21T08:48:19;10.02;;;4.30;;
73264;SDS011;61493;51.008;14.088;2022-09-21T08:50:49;6.90;;;4.05;;
73264;SDS011;61493;51.008;14.088;2022-09-21T08:53:31;7.38;;;4.45;;
73264;SDS011;61493;51.008;14.088;2022-09-21T08:55:58;7.25;;;3.75;;
73264;SDS011;61493;51.008;14.088;2022-09-21T08:58:25;5.15;;;3.05;;
73264;SDS011;61493;51.008;14.088;2022-09-21T09:01:07;5.32;;;2.92;;
73264;SDS011;61493;51.008;14.088;2022-09-21T09:03:56;6.07;;;3.47;;
73264;SDS011;61493;51.008;14.088;2022-09-21T09:09:15;4.72;;;3.50;;
73264;SDS011;61493;51.008;14.088;2022-09-21T09:12:01;4.70;;;3.05;;
73264;SDS011;61493;51.008;14.088;2022-09-21T09:20:59;6.03;;;3.00;;
73264;SDS011;61493;51.008;14.088;2022-09-21T09:23:25;5.00;;;3.50;;
73264;SDS011;61493;51.008;14.088;2022-09-21T09:25:55;4.65;;;3.05;;
73264;SDS011;61493;51.008;14.088;2022-09-21T09:30:56;6.72;;;4.05;;
73264;SDS011;61493;51.008;14.088;2022-09-21T09:33:47;3.75;;;2.40;;
73264;SDS011;61493;51.008;14.088;2022-09-21T09:36:17;5.93;;;2.45;;
73264;SDS011;61493;51.008;14.088;2022-09-21T09:38:45;5.65;;;2.42;;
73264;SDS011;61493;51.008;14.088;2022-09-21T09:46:31;2.42;;;2.10;;
73264;SDS011;61493;51.008;14.088;2022-09-21T09:52:06;3.20;;;2.30;;
73264;SDS011;61493;51.008;14.088;2022-09-21T09:54:34;3.78;;;2.00;;
73264;SDS011;61493;51.008;14.088;2022-09-21T09:57:01;4.15;;;2.10;;
73264;SDS011;61493;51.008;14.088;2022-09-21T10:02:01;6.10;;;2.63;;
73264;SDS011;61493;51.008;14.088;2022-09-21T10:04:29;2.88;;;1.58;;
73264;SDS011;61493;51.008;14.088;2022-09-21T10:06:56;2.45;;;1.50;;
73264;SDS011;61493;51.008;14.088;2022-09-21T10:09:25;3.42;;;2.00;;
73264;SDS011;61493;51.008;14.088;2022-09-21T10:11:55;3.30;;;1.67;;
73264;SDS011;61493;51.008;14.088;2022-09-21T10:14:24;3.53;;;1.52;;
73264;SDS011;61493;51.008;14.088;2022-09-21T10:16:52;2.85;;;1.63;;
73264;SDS011;61493;51.008;14.088;2022-09-21T10:19:20;2.42;;;1.40;;
73264;SDS011;61493;51.008;14.088;2022-09-21T10:21:59;3.10;;;1.50;;
73264;SDS011;61493;51.008;14.088;2022-09-21T10:24:30;3.42;;;1.50;;
73264;SDS011;61493;51.008;14.088;2022-09-21T10:27:02;3.15;;;1.40;;
73264;SDS011;61493;51.008;14.088;2022-09-21T10:29:38;2.42;;;1.50;;
73264;SDS011;61493;51.008;14.088;2022-09-21T10:34:38;1.67;;;0.95;;
73264;SDS011;61493;51.008;14.088;2022-09-21T10:37:27;2.30;;;0.82;;
73264;SDS011;61493;51.008;14.088;2022-09-21T10:39:54;3.10;;;1.08;;
73264;SDS011;61493;51.008;14.088;2022-09-21T10:42:21;2.47;;;1.42;;
73264;SDS011;61493;51.008;14.088;2022-09-21T10:45:03;1.65;;;1.15;;
73264;SDS011;61493;51.008;14.088;2022-09-21T10:47:35;1.67;;;0.90;;
73264;SDS011;61493;51.008;14.088;2022-09-21T10:50:19;1.95;;;1.17;;
73264;SDS011;61493;51.008;14.088;2022-09-21T10:55:39;1.05;;;0.80;;
73264;SDS011;61493;51.008;14.088;2022-09-21T10:58:08;2.72;;;1.10;;
73264;SDS011;61493;51.008;14.088;2022-09-21T11:00:45;1.48;;;0.80;;
73264;SDS011;61493;51.008;14.088;2022-09-21T11:03:27;1.20;;;0.73;;
73264;SDS011;61493;51.008;14.088;2022-09-21T11:05:54;2.35;;;1.00;;
73264;SDS011;61493;51.008;14.088;2022-09-21T11:08:23;1.27;;;0.77;;
73264;SDS011;61493;51.008;14.088;2022-09-21T11:11:07;2.70;;;0.75;;
73264;SDS011;61493;51.008;14.088;2022-09-21T11:13:56;1.55;;;0.90;;
73264;SDS011;61493;51.008;14.088;2022-09-21T11:16:46;1.48;;;0.65;;
73264;SDS011;61493;51.008;14.088;2022-09-21T11:25:22;0.95;;;0.70;;
73264;SDS011;61493;51.008;14.088;2022-09-21T11:28:09;1.17;;;0.70;;
73264;SDS011;61493;51.008;14.088;2022-09-21T11:30:48;1.27;;;0.80;;
73264;SDS011;61493;51.008;14.088;2022-09-21T11:44:17;1.55;;;0.60;;
73264;SDS011;61493;51.008;14.088;2022-09-21T11:46:58;3.63;;;0.93;;
73264;SDS011;61493;51.008;14.088;2022-09-21T12:01:27;1.10;;;0.70;;
73264;SDS011;61493;51.008;14.088;2022-09-21T12:09:57;3.80;;;1.73;;
73264;SDS011;61493;51.008;14.088;2022-09-21T12:12:40;2.47;;;1.05;;
73264;SDS011;61493;51.008;14.088;2022-09-21T12:20:34;0.82;;;0.80;;
73264;SDS011;61493;51.008;14.088;2022-09-21T12:26:13;2.65;;;1.20;;
73264;SDS011;61493;51.008;14.088;2022-09-21T12:28:53;2.13;;;0.82;;
73264;SDS011;61493;51.008;14.088;2022-09-21T12:31:34;2.28;;;0.90;;
73264;SDS011;61493;51.008;14.088;2022-09-21T12:34:07;1.33;;;0.80;;
73264;SDS011;61493;51.008;14.088;2022-09-21T12:36:49;2.53;;;0.90;;
73264;SDS011;61493;51.008;14.088;2022-09-21T12:39:42;2.20;;;0.93;;
73264;SDS011;61493;51.008;14.088;2022-09-21T12:42:25;1.77;;;0.98;;
73264;SDS011;61493;51.008;14.088;2022-09-21T12:50:25;10.45;;;3.17;;
73264;SDS011;61493;51.008;14.088;2022-09-21T12:52:53;3.47;;;1.75;;
73264;SDS011;61493;51.008;14.088;2022-09-21T13:09:09;2.90;;;1.30;;
73264;SDS011;61493;51.008;14.088;2022-09-21T13:11:48;2.63;;;1.30;;
73264;SDS011;61493;51.008;14.088;2022-09-21T13:14:18;1.83;;;1.00;;
73264;SDS011;61493;51.008;14.088;2022-09-21T13:16:43;1.52;;;0.90;;
73264;SDS011;61493;51.008;14.088;2022-09-21T13:19:20;2.65;;;1.20;;
73264;SDS011;61493;51.008;14.088;2022-09-21T13:22:08;2.67;;;1.15;;
73264;SDS011;61493;51.008;14.088;2022-09-21T13:24:57;1.55;;;1.40;;
73264;SDS011;61493;51.008;14.088;2022-09-21T13:30:34;2.38;;;1.13;;
73264;SDS011;61493;51.008;14.088;2022-09-21T13:38:26;1.75;;;1.08;;
73264;SDS011;61493;51.008;14.088;2022-09-21T13:49:01;3.15;;;1.73;;
73264;SDS011;61493;51.008;14.088;2022-09-21T13:51:33;2.80;;;1.70;;
73264;SDS011;61493;51.008;14.088;2022-09-21T13:53:59;2.42;;;1.30;;
73264;SDS011;61493;51.008;14.088;2022-09-21T13:56:26;3.72;;;2.05;;
73264;SDS011;61493;51.008;14.088;2022-09-21T13:58:54;2.90;;;1.48;;
73264;SDS011;61493;51.008;14.088;2022-09-21T14:01:22;2.08;;;1.33;;
73264;SDS011;61493;51.008;14.088;2022-09-21T14:03:58;2.88;;;1.20;;
73264;SDS011;61493;51.008;14.088;2022-09-21T14:06:28;3.20;;;1.40;;
73264;SDS011;61493;51.008;14.088;2022-09-21T14:09:05;1.27;;;1.02;;
73264;SDS011;61493;51.008;14.088;2022-09-21T14:11:43;4.63;;;1.65;;
73264;SDS011;61493;51.008;14.088;2022-09-21T14:14:19;3.78;;;1.25;;
73264;SDS011;61493;51.008;14.088;2022-09-21T14:16:53;3.88;;;1.27;;
73264;SDS011;61493;51.008;14.088;2022-09-21T14:24:35;3.65;;;1.90;;
73264;SDS011;61493;51.008;14.088;2022-09-21T14:28:09;6.53;;;2.90;;
73264;SDS011;61493;51.008;14.088;2022-09-21T14:30:18;9.68;;;4.68;;
73264;SDS011;61493;51.008;14.088;2022-09-21T14:35:24;8.25;;;2.28;;
73264;SDS011;61493;51.008;14.088;2022-09-21T14:37:53;10.52;;;5.90;;
73264;SDS011;61493;51.008;14.088;2022-09-21T14:40:23;4.13;;;1.40;;
73264;SDS011;61493;51.008;14.088;2022-09-21T14:43:09;1.13;;;0.80;;
73264;SDS011;61493;51.008;14.088;2022-09-21T14:57:17;0.75;;;0.50;;
73264;SDS011;61493;51.008;14.088;2022-09-21T15:00:19;2.47;;;1.00;;
73264;SDS011;61493;51.008;14.088;2022-09-21T15:06:34;2.78;;;1.58;;
73264;SDS011;61493;51.008;14.088;2022-09-21T15:09:26;5.72;;;2.35;;
73264;SDS011;61493;51.008;14.088;2022-09-21T15:12:34;2.08;;;1.30;;
73264;SDS011;61493;51.008;14.088;2022-09-21T15:17:38;3.03;;;1.33;;
73264;SDS011;61493;51.008;14.088;2022-09-21T15:20:16;2.85;;;1.15;;
73264;SDS011;61493;51.008;14.088;2022-09-21T15:22:47;1.98;;;0.90;;
73264;SDS011;61493;51.008;14.088;2022-09-21T15:25:12;3.67;;;1.10;;
73264;SDS011;61493;51.008;14.088;2022-09-21T15:27:40;1.58;;;1.08;;
73264;SDS011;61493;51.008;14.088;2022-09-21T15:30:16;2.33;;;1.00;;
73264;SDS011;61493;51.008;14.088;2022-09-21T15:32:45;2.63;;;1.00;;
73264;SDS011;61493;51.008;14.088;2022-09-21T15:35:15;2.05;;;1.25;;
73264;SDS011;61493;51.008;14.088;2022-09-21T15:37:42;1.88;;;1.10;;
73264;SDS011;61493;51.008;14.088;2022-09-21T15:48:18;3.13;;;1.57;;
73264;SDS011;61493;51.008;14.088;2022-09-21T15:50:45;2.33;;;1.10;;
73264;SDS011;61493;51.008;14.088;2022-09-21T15:53:18;3.40;;;1.10;;
73264;SDS011;61493;51.008;14.088;2022-09-21T15:55:47;6.15;;;2.90;;
73264;SDS011;61493;51.008;14.088;2022-09-21T15:58:27;2.35;;;1.30;;
73264;SDS011;61493;51.008;14.088;2022-09-21T16:00:59;3.35;;;1.42;;
73264;SDS011;61493;51.008;14.088;2022-09-21T16:03:26;1.92;;;1.20;;
73264;SDS011;61493;51.008;14.088;2022-09-21T16:05:52;1.58;;;1.10;;
73264;SDS011;61493;51.008;14.088;2022-09-21T16:13:47;2.33;;;1.30;;
73264;SDS011;61493;51.008;14.088;2022-09-21T16:19:40;2.45;;;1.42;;
73264;SDS011;61493;51.008;14.088;2022-09-21T16:22:18;1.55;;;1.08;;
73264;SDS011;61493;51.008;14.088;2022-09-21T16:24:51;1.65;;;0.95;;
73264;SDS011;61493;51.008;14.088;2022-09-21T16:27:20;2.67;;;1.50;;
73264;SDS011;61493;51.008;14.088;2022-09-21T16:29:47;3.30;;;1.75;;
73264;SDS011;61493;51.008;14.088;2022-09-21T16:34:43;2.15;;;1.35;;
73264;SDS011;61493;51.008;14.088;2022-09-21T16:39:50;4.90;;;2.10;;
73264;SDS011;61493;51.008;14.088;2022-09-21T16:42:16;3.13;;;1.50;;
73264;SDS011;61493;51.008;14.088;2022-09-21T16:44:41;2.53;;;1.35;;
73264;SDS011;61493;51.008;14.088;2022-09-21T16:47:11;3.67;;;1.83;;
73264;SDS011;61493;51.008;14.088;2022-09-21T16:49:39;2.55;;;1.85;;
73264;SDS011;61493;51.008;14.088;2022-09-21T16:52:05;2.28;;;1.17;;
73264;SDS011;61493;51.008;14.088;2022-09-21T16:54:31;3.33;;;1.98;;
73264;SDS011;61493;51.008;14.088;2022-09-21T16:56:59;3.13;;;1.73;;
73264;SDS011;61493;51.008;14.088;2022-09-21T16:59:26;2.95;;;1.80;;
73264;SDS011;61493;51.008;14.088;2022-09-21T17:01:53;3.88;;;2.08;;
73264;SDS011;61493;51.008;14.088;2022-09-21T17:04:21;3.33;;;1.95;;
73264;SDS011;61493;51.008;14.088;2022-09-21T17:06:49;3.75;;;2.45;;
73264;SDS011;61493;51.008;14.088;2022-09-21T17:09:19;4.50;;;2.70;;
73264;SDS011;61493;51.008;14.088;2022-09-21T17:11:47;6.13;;;3.35;;
73264;SDS011;61493;51.008;14.088;2022-09-21T17:14:14;4.63;;;2.50;;
73264;SDS011;61493;51.008;14.088;2022-09-21T17:16:41;4.78;;;1.90;;
73264;SDS011;61493;51.008;14.088;2022-09-21T17:19:08;5.30;;;2.13;;
73264;SDS011;61493;51.008;14.088;2022-09-21T17:21:33;4.53;;;2.33;;
73264;SDS011;61493;51.008;14.088;2022-09-21T17:23:59;4.03;;;2.55;;
73264;SDS011;61493;51.008;14.088;2022-09-21T17:26:24;4.20;;;2.35;;
73264;SDS011;61493;51.008;14.088;2022-09-21T17:28:49;7.07;;;3.15;;
73264;SDS011;61493;51.008;14.088;2022-09-21T17:31:16;5.10;;;2.63;;
73264;SDS011;61493;51.008;14.088;2022-09-21T17:33:42;4.72;;;2.65;;
73264;SDS011;61493;51.008;14.088;2022-09-21T17:36:14;3.22;;;2.35;;
73264;SDS011;61493;51.008;14.088;2022-09-21T17:38:40;5.97;;;3.25;;
73264;SDS011;61493;51.008;14.088;2022-09-21T17:41:28;5.10;;;3.50;;
73264;SDS011;61493;51.008;14.088;2022-09-21T17:44:15;6.88;;;4.07;;
73264;SDS011;61493;51.008;14.088;2022-09-21T17:46:47;7.13;;;4.28;;
73264;SDS011;61493;51.008;14.088;2022-09-21T17:49:18;7.10;;;4.47;;
73264;SDS011;61493;51.008;14.088;2022-09-21T17:51:44;7.15;;;4.68;;
73264;SDS011;61493;51.008;14.088;2022-09-21T17:54:28;9.18;;;5.45;;
73264;SDS011;61493;51.008;14.088;2022-09-21T17:57:06;8.13;;;5.80;;
73264;SDS011;61493;51.008;14.088;2022-09-21T17:59:42;7.45;;;4.65;;
73264;SDS011;61493;51.008;14.088;2022-09-21T18:02:20;8.27;;;3.97;;
73264;SDS011;61493;51.008;14.088;2022-09-21T18:04:47;6.05;;;3.40;;
73264;SDS011;61493;51.008;14.088;2022-09-21T18:07:15;4.93;;;3.15;;